createdAt,value
2023-04-11T00:00:12.924Z,100054.91
2023-04-11T00:02:40.513Z,100052.91
2023-04-11T00:05:08.268Z,100046.94
2023-04-11T00:07:35.683Z,100041.69
2023-04-11T00:10:03.082Z,100042.78
2023-04-11T00:12:31.679Z,100033.97
2023-04-11T00:14:58.933Z,100045.31
2023-04-11T00:17:31.249Z,100031.50
2023-04-11T00:20:01.670Z,100034.53
2023-04-11T00:22:30.546Z,100024.19
2023-04-11T00:24:57.806Z,100015.66
2023-04-11T00:27:25.337Z,100005.41
2023-04-11T00:29:56.115Z,100000.59
2023-04-11T00:32:23.448Z,99994.31
2023-04-11T00:34:50.720Z,99990.78
2023-04-11T00:37:21.288Z,99980.41
2023-04-11T00:39:50.421Z,99972.38
2023-04-11T00:42:18.230Z,99966.66
2023-04-11T00:44:45.659Z,99962.63
2023-04-11T00:47:14.725Z,99961.91
2023-04-11T00:49:42.190Z,99962.75
2023-04-11T00:52:09.709Z,99950.03
2023-04-11T00:54:36.966Z,99947.72
2023-04-11T00:57:05.684Z,99945.91
2023-04-11T00:59:33.565Z,99941.88
2023-04-11T01:02:02.456Z,99939.69
2023-04-11T01:04:31.133Z,99938.09
2023-04-11T01:07:03.946Z,99940.66
2023-04-11T01:09:33.105Z,99941.25
2023-04-11T01:12:01.255Z,99936.53
2023-04-11T01:14:29.493Z,99935.16
2023-04-11T01:16:57.375Z,99931.28
2023-04-11T01:19:25.740Z,99934.56
2023-04-11T01:21:54.870Z,99935.91
2023-04-11T01:24:23.546Z,99939.69
2023-04-11T01:26:51.919Z,99935.41
2023-04-11T01:29:19.245Z,99934.56
2023-04-11T01:31:46.701Z,99937.38
2023-04-11T01:34:15.510Z,99938.19
2023-04-11T01:36:43.497Z,99942.25
2023-04-11T01:39:11.030Z,99938.34
2023-04-11T01:41:40.665Z,99949.19
2023-04-11T01:44:07.935Z,99938.56
2023-04-11T01:46:35.317Z,99939.09
2023-04-11T01:49:02.611Z,99932.72
2023-04-11T01:51:29.885Z,99927.72
2023-04-11T01:53:57.152Z,99926.41
2023-04-11T01:56:24.481Z,99914.66
2023-04-11T01:58:53.261Z,99890.03
2023-04-11T02:01:21.557Z,99881.97
2023-04-11T02:03:49.033Z,99869.28
2023-04-11T02:06:17.049Z,99876.44
2023-04-11T02:08:44.469Z,99876.72
2023-04-11T02:11:11.894Z,99855.22
2023-04-11T02:13:39.162Z,99849.75
2023-04-11T02:16:09.230Z,99840.81
2023-04-11T02:18:37.191Z,99833.38
2023-04-11T02:21:04.689Z,99820.97
2023-04-11T02:23:32.031Z,99819.22
2023-04-11T02:25:59.309Z,99807.38
2023-04-11T02:28:26.553Z,99800.06
2023-04-11T02:30:53.946Z,99791.91
2023-04-11T02:33:22.816Z,99782.84
2023-04-11T02:35:50.211Z,99781.50
2023-04-11T02:38:17.492Z,99772.25
2023-04-11T02:40:44.756Z,99768.06
2023-04-11T02:43:12.039Z,99772.59
2023-04-11T02:45:39.493Z,99762.69
2023-04-11T02:48:07.000Z,99766.34
2023-04-11T02:50:36.051Z,99763.56
2023-04-11T02:53:03.350Z,99766.00
2023-04-11T02:55:30.691Z,99762.22
2023-04-11T02:57:58.445Z,99752.91
2023-04-11T03:00:26.133Z,99754.09
2023-04-11T03:02:56.407Z,99756.31
2023-04-11T03:05:23.824Z,99757.53
2023-04-11T03:07:52.399Z,99754.09
2023-04-11T03:10:19.673Z,99752.06
2023-04-11T03:12:46.966Z,99752.53
2023-04-11T03:15:15.384Z,99754.03
2023-04-11T03:17:42.828Z,99749.75
2023-04-11T03:20:11.650Z,99746.34
2023-04-11T03:22:39.183Z,99740.59
2023-04-11T03:25:08.737Z,99747.19
2023-04-11T03:27:36.041Z,99735.59
2023-04-11T03:30:03.725Z,99739.00
2023-04-11T03:32:31.341Z,99734.50
2023-04-11T03:35:01.275Z,99727.91
2023-04-11T03:37:28.533Z,99724.75
2023-04-11T03:39:55.857Z,99729.84
2023-04-11T03:42:24.580Z,99727.53
2023-04-11T03:44:51.852Z,99726.97
2023-04-11T03:47:19.151Z,99725.13
2023-04-11T03:49:46.675Z,99725.97
2023-04-11T03:52:14.974Z,99727.66
2023-04-11T03:54:42.246Z,99724.03
2023-04-11T03:57:09.732Z,99719.66
2023-04-11T03:59:38.348Z,99706.00
2023-04-11T04:02:05.941Z,99706.25
2023-04-11T04:04:34.155Z,99699.88
2023-04-11T04:07:01.689Z,99707.19
2023-04-11T04:09:29.107Z,99708.06
2023-04-11T04:11:57.378Z,99706.00
2023-04-11T04:14:24.681Z,99709.53
2023-04-11T04:16:53.316Z,99702.59
2023-04-11T04:19:20.604Z,99700.16
2023-04-11T04:21:47.977Z,99692.13
2023-04-11T04:24:15.277Z,99691.84
2023-04-11T04:26:42.568Z,99691.88
2023-04-11T04:29:10.099Z,99695.78
2023-04-11T04:31:38.180Z,99697.25
2023-04-11T04:34:09.349Z,99697.34
2023-04-11T04:36:46.157Z,99693.56
2023-04-11T04:39:17.541Z,99698.47
2023-04-11T04:41:45.622Z,99693.25
2023-04-11T04:44:12.928Z,99699.47
2023-04-11T04:46:40.381Z,99702.63
2023-04-11T04:49:09.446Z,99711.06
2023-04-11T04:51:37.332Z,99711.66
2023-04-11T04:54:05.678Z,99716.78
2023-04-11T04:56:33.049Z,99710.56
2023-04-11T04:59:00.318Z,99717.25
2023-04-11T05:01:27.689Z,99714.00
2023-04-11T05:04:00.463Z,99715.56
2023-04-11T05:06:31.445Z,99705.59
2023-04-11T05:08:59.495Z,99713.38
2023-04-11T05:11:27.030Z,99704.00
2023-04-11T05:13:54.507Z,99705.81
2023-04-11T05:16:22.300Z,99694.38
2023-04-11T05:18:49.608Z,99699.34
2023-04-11T05:21:16.875Z,99698.75
2023-04-11T05:23:45.493Z,99693.38
2023-04-11T05:26:14.416Z,99691.78
2023-04-11T05:28:42.414Z,99683.75
2023-04-11T05:31:09.871Z,99680.69
2023-04-11T05:33:38.305Z,99677.28
2023-04-11T05:36:06.109Z,99667.56
2023-04-11T05:38:33.833Z,99674.00
2023-04-11T05:41:02.392Z,99678.28
2023-04-11T05:43:29.671Z,99674.00
2023-04-11T05:45:57.865Z,99670.72
2023-04-11T05:48:25.289Z,99674.47
2023-04-11T05:50:52.593Z,99670.69
2023-04-11T05:53:20.209Z,99668.75
2023-04-11T05:55:47.493Z,99663.16
2023-04-11T05:58:16.103Z,99672.19
2023-04-11T06:00:43.450Z,99660.84
2023-04-11T06:03:10.835Z,99657.06
2023-04-11T06:05:38.948Z,99662.41
2023-04-11T06:08:07.580Z,99663.41
2023-04-11T06:10:35.916Z,99651.09
2023-04-11T06:13:03.205Z,99656.66
2023-04-11T06:15:31.917Z,99653.16
2023-04-11T06:17:59.262Z,99656.31
2023-04-11T06:20:26.676Z,99660.25
2023-04-11T06:22:53.934Z,99661.94
2023-04-11T06:25:21.719Z,99662.03
2023-04-11T06:27:49.093Z,99663.41
2023-04-11T06:30:16.355Z,99658.41
2023-04-11T06:32:45.058Z,99662.41
2023-04-11T06:35:12.379Z,99666.56
2023-04-11T06:37:39.644Z,99670.81
2023-04-11T06:40:08.013Z,99667.53
2023-04-11T06:42:35.279Z,99673.84
2023-04-11T06:45:02.698Z,99684.13
2023-04-11T06:47:29.997Z,99685.75
2023-04-11T06:49:59.283Z,99687.25
2023-04-11T06:52:28.162Z,99680.44
2023-04-11T06:54:55.794Z,99687.91
2023-04-11T06:57:23.069Z,99704.53
2023-04-11T06:59:50.442Z,99699.88
2023-04-11T07:02:17.828Z,99717.50
2023-04-11T07:04:45.254Z,99707.16
2023-04-11T07:07:13.977Z,99715.31
2023-04-11T07:09:41.241Z,99717.22
2023-04-11T07:12:08.598Z,99727.63
2023-04-11T07:14:35.918Z,99724.69
2023-04-11T07:17:03.373Z,99729.41
2023-04-11T07:19:30.645Z,99732.56
2023-04-11T07:21:58.381Z,99730.56
2023-04-11T07:24:27.222Z,99733.44
2023-04-11T07:26:58.389Z,99742.69
2023-04-11T07:29:25.911Z,99730.00
2023-04-11T07:31:53.652Z,99737.19
2023-04-11T07:34:20.944Z,99728.94
2023-04-11T07:36:49.944Z,99730.75
2023-04-11T07:39:17.216Z,99730.44
2023-04-11T07:41:45.873Z,99733.84
2023-04-11T07:44:13.136Z,99735.19
2023-04-11T07:46:40.404Z,99736.16
2023-04-11T07:49:07.702Z,99733.47
2023-04-11T07:51:35.194Z,99741.50
2023-04-11T07:54:02.472Z,99742.25
2023-04-11T07:56:29.769Z,99739.59
2023-04-11T07:58:58.434Z,99729.59
2023-04-11T08:01:26.719Z,99740.31
2023-04-11T08:03:54.928Z,99736.78
2023-04-11T08:06:22.547Z,99735.56
2023-04-11T08:08:50.324Z,99734.03
2023-04-11T08:11:17.705Z,99742.59
2023-04-11T08:13:45.055Z,99738.69
2023-04-11T08:16:15.467Z,99736.16
2023-04-11T08:18:43.014Z,99729.25
2023-04-11T08:21:11.377Z,99724.25
2023-04-11T08:23:39.597Z,99725.94
2023-04-11T08:26:07.722Z,99727.63
2023-04-11T08:28:35.857Z,99720.91
2023-04-11T08:31:04.134Z,99719.34
2023-04-11T08:33:32.998Z,99725.81
2023-04-11T08:36:00.363Z,99723.88
2023-04-11T08:38:27.707Z,99718.81
2023-04-11T08:40:55.643Z,99709.94
2023-04-11T08:43:23.184Z,99709.72
2023-04-11T08:45:50.675Z,99713.25
2023-04-11T08:48:19.467Z,99717.41
2023-04-11T08:50:48.410Z,99723.81
2023-04-11T08:53:17.888Z,99732.41
2023-04-11T08:55:45.785Z,99735.78
2023-04-11T08:58:13.141Z,99753.13
2023-04-11T09:00:40.880Z,99754.34
2023-04-11T09:03:08.863Z,99752.16
2023-04-11T09:05:38.185Z,99751.91
2023-04-11T09:08:07.964Z,99758.13
2023-04-11T09:10:35.821Z,99763.13
2023-04-11T09:13:14.691Z,99758.25
2023-04-11T09:15:42.118Z,99760.94
2023-04-11T09:18:09.788Z,99760.81
2023-04-11T09:20:37.174Z,99748.84
2023-04-11T09:23:04.462Z,99751.28
2023-04-11T09:25:44.270Z,99753.13
2023-04-11T09:28:11.690Z,99748.50
2023-04-11T09:30:38.950Z,99747.03
2023-04-11T09:33:23.747Z,99731.50
2023-04-11T09:35:52.018Z,99733.56
2023-04-11T09:38:29.893Z,99731.09
2023-04-11T09:40:58.918Z,99717.16
2023-04-11T09:43:26.513Z,99709.50
2023-04-11T09:46:12.058Z,99703.69
2023-04-11T09:48:46.037Z,99693.94
2023-04-11T09:51:36.529Z,99687.16
2023-04-11T09:54:06.146Z,99700.38
2023-04-11T09:56:35.415Z,99706.06
2023-04-11T09:59:03.997Z,99691.56
2023-04-11T10:01:31.533Z,99690.50
2023-04-11T10:04:00.981Z,99693.91
2023-04-11T10:06:33.813Z,99701.38
2023-04-11T10:09:08.197Z,99702.66
2023-04-11T10:11:36.997Z,99693.97
2023-04-11T10:14:04.662Z,99697.28
2023-04-11T10:16:34.269Z,99694.47
2023-04-11T10:19:20.438Z,99689.72
2023-04-11T10:21:47.933Z,99689.88
2023-04-11T10:24:17.490Z,99688.19
2023-04-11T10:26:51.491Z,99688.22
2023-04-11T10:29:40.705Z,99695.13
2023-04-11T10:32:11.661Z,99687.94
2023-04-11T10:34:40.002Z,99685.34
2023-04-11T10:37:08.662Z,99681.16
2023-04-11T10:39:50.824Z,99676.31
2023-04-11T10:42:28.774Z,99680.03
2023-04-11T10:45:10.956Z,99674.59
2023-04-11T10:47:38.280Z,99686.06
2023-04-11T10:50:25.887Z,99680.38
2023-04-11T10:52:54.610Z,99689.19
2023-04-11T10:55:22.213Z,99684.66
2023-04-11T10:58:05.663Z,99686.09
2023-04-11T11:01:02.036Z,99680.41
2023-04-11T11:03:31.660Z,99722.75
2023-04-11T11:05:59.910Z,99773.44
2023-04-11T11:08:30.626Z,99781.88
2023-04-11T11:11:00.637Z,99808.72
2023-04-11T11:13:38.558Z,99787.47
2023-04-11T11:16:07.220Z,99783.69
2023-04-11T11:18:34.631Z,99774.38
2023-04-11T11:21:02.119Z,99771.81
2023-04-11T11:23:30.756Z,99768.44
2023-04-11T11:25:58.907Z,99766.28
2023-04-11T11:28:26.280Z,99756.28
2023-04-11T11:30:55.531Z,99759.97
2023-04-11T11:33:23.843Z,99759.38
2023-04-11T11:35:53.130Z,99763.28
2023-04-11T11:38:21.251Z,99769.53
2023-04-11T11:40:50.291Z,99783.03
2023-04-11T11:43:17.627Z,99833.88
2023-04-11T11:45:45.518Z,99849.38
2023-04-11T11:48:20.559Z,99858.84
2023-04-11T11:50:47.869Z,99874.13
2023-04-11T11:53:16.391Z,99863.66
2023-04-11T11:55:44.048Z,99869.34
2023-04-11T11:58:12.686Z,99859.72
2023-04-11T12:00:40.917Z,99861.94
2023-04-11T12:03:09.949Z,99860.00
2023-04-11T12:05:37.739Z,99852.72
2023-04-11T12:08:05.983Z,99852.75
2023-04-11T12:10:39.776Z,99851.03
2023-04-11T12:13:19.814Z,99851.47
2023-04-11T12:15:50.659Z,99857.50
2023-04-11T12:18:20.580Z,99856.50
2023-04-11T12:20:47.935Z,99854.22
2023-04-11T12:23:15.215Z,99857.25
2023-04-11T12:25:42.538Z,99863.84
2023-04-11T12:28:10.040Z,99868.91
2023-04-11T12:30:38.875Z,99861.00
2023-04-11T12:33:06.608Z,99867.53
2023-04-11T12:35:34.008Z,99867.06
2023-04-11T12:38:01.741Z,99872.91
2023-04-11T12:40:30.094Z,99850.84
2023-04-11T12:42:57.784Z,99849.47
2023-04-11T12:45:25.342Z,99850.78
2023-04-11T12:47:54.294Z,99844.06
2023-04-11T12:50:23.294Z,99845.88
2023-04-11T12:52:51.424Z,99848.50
2023-04-11T12:55:18.984Z,99837.94
2023-04-11T12:57:46.259Z,99835.47
2023-04-11T13:00:14.343Z,99822.34
2023-04-11T13:02:44.515Z,99821.28
2023-04-11T13:05:15.293Z,99819.09
2023-04-11T13:07:44.566Z,99812.72
2023-04-11T13:10:13.456Z,99818.16
2023-04-11T13:12:41.650Z,99813.47
2023-04-11T13:15:09.966Z,99820.75
2023-04-11T13:17:37.448Z,99818.81
2023-04-11T13:20:07.703Z,99822.81
2023-04-11T13:22:36.392Z,99808.22
2023-04-11T13:25:03.823Z,99816.09
2023-04-11T13:27:31.081Z,99802.34
2023-04-11T13:29:58.397Z,99803.16
2023-04-11T13:32:26.017Z,99801.63
2023-04-11T13:34:53.329Z,99804.81
2023-04-11T13:37:20.595Z,99804.84
2023-04-11T13:39:49.242Z,99815.31
2023-04-11T13:42:16.529Z,99813.53
2023-04-11T13:44:43.915Z,99820.16
2023-04-11T13:47:11.168Z,99808.94
2023-04-11T13:49:38.477Z,99814.94
2023-04-11T13:52:05.878Z,99818.88
2023-04-11T13:54:33.184Z,99825.59
2023-04-11T13:57:06.734Z,99814.78
2023-04-11T13:59:34.086Z,99821.28
2023-04-11T14:02:02.572Z,99826.69
2023-04-11T14:04:30.025Z,99808.31
2023-04-11T14:06:57.717Z,99808.66
2023-04-11T14:09:25.069Z,99814.66
2023-04-11T14:11:52.352Z,99815.78
2023-04-11T14:14:21.092Z,99834.03
2023-04-11T14:16:48.457Z,99818.56
2023-04-11T14:19:16.292Z,99817.63
2023-04-11T14:21:43.590Z,99823.47
2023-04-11T14:24:11.010Z,99817.28
2023-04-11T14:26:38.321Z,99834.25
2023-04-11T14:29:05.816Z,99840.38
2023-04-11T14:31:34.509Z,99826.56
2023-04-11T14:34:01.839Z,99834.47
2023-04-11T14:36:29.167Z,99837.38
2023-04-11T14:38:56.649Z,99833.56
2023-04-11T14:41:24.159Z,99829.44
2023-04-11T14:43:51.741Z,99834.75
2023-04-11T14:46:19.033Z,99837.75
2023-04-11T14:48:47.659Z,99845.50
2023-04-11T14:51:14.970Z,99854.50
2023-04-11T14:53:42.841Z,99854.84
2023-04-11T14:56:10.489Z,99865.56
2023-04-11T14:58:37.878Z,99885.88
2023-04-11T15:01:05.465Z,99901.84
2023-04-11T15:03:32.993Z,99913.47
2023-04-11T15:06:01.820Z,99919.44
2023-04-11T15:08:29.104Z,99924.94
2023-04-11T15:10:56.420Z,99937.97
2023-04-11T15:13:23.758Z,99904.91
2023-04-11T15:15:51.386Z,99929.75
2023-04-11T15:18:20.082Z,99935.06
2023-04-11T15:20:47.389Z,99948.69
2023-04-11T15:23:16.318Z,99968.06
2023-04-11T15:25:43.861Z,99943.81
2023-04-11T15:28:11.164Z,99947.94
2023-04-11T15:30:46.117Z,99943.03
2023-04-11T15:33:13.821Z,99926.59
2023-04-11T15:35:41.546Z,99924.84
2023-04-11T15:38:08.873Z,99874.75
2023-04-11T15:40:38.060Z,99893.88
2023-04-11T15:43:06.314Z,99881.44
2023-04-11T15:45:34.540Z,99888.06
2023-04-11T15:48:01.957Z,99881.72
2023-04-11T15:50:29.636Z,99878.28
2023-04-11T15:52:57.907Z,99883.91
2023-04-11T15:55:25.264Z,99891.72
2023-04-11T15:57:53.841Z,99887.78
2023-04-11T16:00:22.649Z,99892.81
2023-04-11T16:02:50.552Z,99894.31
2023-04-11T16:05:20.782Z,99897.84
2023-04-11T16:07:48.669Z,99907.75
2023-04-11T16:10:16.244Z,99904.06
2023-04-11T16:12:43.548Z,99911.00
2023-04-11T16:15:12.326Z,99918.22
2023-04-11T16:17:40.349Z,99923.84
2023-04-11T16:20:12.107Z,99921.63
2023-04-11T16:22:41.685Z,99930.50
2023-04-11T16:25:09.298Z,99920.03
2023-04-11T16:27:36.923Z,99905.88
2023-04-11T16:30:05.730Z,99896.88
2023-04-11T16:32:34.403Z,99886.72
2023-04-11T16:35:01.778Z,99880.63
2023-04-11T16:37:29.068Z,99889.25
2023-04-11T16:39:56.569Z,99883.84
2023-04-11T16:42:23.885Z,99893.63
2023-04-11T16:44:51.268Z,99902.34
2023-04-11T16:47:18.839Z,99913.66
2023-04-11T16:49:50.662Z,99912.31
2023-04-11T16:52:17.924Z,99917.09
2023-04-11T16:54:45.392Z,99918.31
2023-04-11T16:57:12.863Z,99929.81
2023-04-11T16:59:40.134Z,99933.03
2023-04-11T17:02:07.675Z,99929.59
2023-04-11T17:04:35.331Z,99915.81
2023-04-11T17:07:04.017Z,99912.63
2023-04-11T17:09:31.531Z,99899.16
2023-04-11T17:11:58.998Z,99900.03
2023-04-11T17:14:29.274Z,99903.94
2023-04-11T17:16:56.524Z,99918.97
2023-04-11T17:19:25.550Z,99920.78
2023-04-11T17:21:52.955Z,99917.09
2023-04-11T17:24:21.543Z,99928.94
2023-04-11T17:26:48.835Z,99929.06
2023-04-11T17:29:16.659Z,99931.28
2023-04-11T17:31:43.932Z,99932.38
2023-04-11T17:34:11.311Z,99933.19
2023-04-11T17:36:42.698Z,99934.53
2023-04-11T17:39:11.145Z,99933.78
2023-04-11T17:41:39.803Z,99943.22
2023-04-11T17:44:07.123Z,99940.50
2023-04-11T17:46:34.427Z,99940.97
2023-04-11T17:49:01.752Z,99950.81
2023-04-11T17:51:29.426Z,99953.91
2023-04-11T17:53:57.003Z,99954.44
2023-04-11T17:56:24.519Z,99950.59
2023-04-11T17:58:53.587Z,99950.81
2023-04-11T18:01:20.937Z,99962.00
2023-04-11T18:03:50.329Z,99958.28
2023-04-11T18:06:18.042Z,99959.28
2023-04-11T18:08:50.333Z,99958.13
2023-04-11T18:11:19.171Z,99961.66
2023-04-11T18:13:49.248Z,99969.63
2023-04-11T18:16:18.986Z,99973.34
2023-04-11T18:18:46.606Z,99982.28
2023-04-11T18:21:13.863Z,99982.19
2023-04-11T18:23:41.126Z,99989.97
2023-04-11T18:26:08.393Z,99995.09
2023-04-11T18:28:36.210Z,99999.19
2023-04-11T18:31:03.513Z,100010.53
2023-04-11T18:33:32.723Z,100013.41
2023-04-11T18:36:00.238Z,100022.19
2023-04-11T18:38:27.577Z,100036.09
2023-04-11T18:40:56.448Z,100061.16
2023-04-11T18:43:24.708Z,100060.16
2023-04-11T18:45:52.293Z,100060.16
2023-04-11T18:48:19.686Z,100079.97
2023-04-11T18:50:57.566Z,100081.38
2023-04-11T18:53:25.814Z,100087.38
2023-04-11T18:55:53.224Z,100088.97
2023-04-11T18:58:24.166Z,100106.97
2023-04-11T19:00:52.871Z,100131.13
2023-04-11T19:03:20.979Z,100146.72
2023-04-11T19:05:50.541Z,100153.97
2023-04-11T19:08:17.891Z,100143.22
2023-04-11T19:13:36.454Z,100157.50
2023-04-11T19:16:03.767Z,100152.91
2023-04-11T19:18:31.273Z,100151.47
2023-04-11T19:20:59.850Z,100144.59
2023-04-11T19:23:30.598Z,100146.03
2023-04-11T19:26:00.488Z,100149.69
2023-04-11T19:28:28.087Z,100136.97
2023-04-11T19:30:55.410Z,100131.63
2023-04-11T19:33:23.911Z,100125.28
2023-04-11T19:35:51.192Z,100121.31
2023-04-11T19:38:19.782Z,100131.44
2023-04-11T19:40:47.136Z,100128.31
2023-04-11T19:43:14.457Z,100122.00
2023-04-11T19:45:42.881Z,100121.06
2023-04-11T19:48:10.664Z,100123.84
2023-04-11T19:50:37.965Z,100124.22
2023-04-11T19:53:05.235Z,100128.72
2023-04-11T19:55:34.102Z,100120.97
2023-04-11T19:58:01.608Z,100121.75
2023-04-11T20:00:31.951Z,100112.16
2023-04-11T20:02:59.669Z,100116.03
2023-04-11T20:05:28.051Z,100119.06
2023-04-11T20:07:55.314Z,100113.97
2023-04-11T20:10:22.723Z,100124.75
2023-04-11T20:12:52.866Z,100120.88
2023-04-11T20:15:20.122Z,100118.94
2023-04-11T20:17:50.615Z,100106.75
2023-04-11T20:20:19.521Z,100104.63
2023-04-11T20:22:47.987Z,100111.66
2023-04-11T20:25:15.579Z,100104.63
2023-04-11T20:27:43.681Z,100100.53
2023-04-11T20:30:16.591Z,100095.03
2023-04-11T20:32:44.360Z,100099.09
2023-04-11T20:35:12.786Z,100093.38
2023-04-11T20:37:41.212Z,100093.47
2023-04-11T20:40:10.060Z,100083.97
2023-04-11T20:42:40.004Z,100087.63
2023-04-11T20:45:10.056Z,100078.75
2023-04-11T20:47:38.997Z,100088.53
2023-04-11T20:50:08.882Z,100095.38
2023-04-11T20:52:36.860Z,100094.56
2023-04-11T20:55:04.294Z,100088.66
2023-04-11T20:57:31.643Z,100095.59
2023-04-11T20:59:58.986Z,100089.00
2023-04-11T21:02:27.652Z,100086.13
2023-04-11T21:04:56.422Z,100093.84
2023-04-11T21:07:23.730Z,100093.28
2023-04-11T21:09:51.678Z,100088.66
2023-04-11T21:12:19.000Z,100089.44
2023-04-11T21:14:46.312Z,100089.34
2023-04-11T21:17:13.638Z,100090.56
2023-04-11T21:19:40.892Z,100100.34
2023-04-11T21:22:09.698Z,100091.41
2023-04-11T21:24:37.024Z,100079.94
2023-04-11T21:27:04.308Z,100083.50
2023-04-11T21:29:31.569Z,100078.53
2023-04-11T21:31:58.950Z,100090.47
2023-04-11T21:34:26.209Z,100090.16
2023-04-11T21:36:53.495Z,100104.69
2023-04-11T21:39:22.221Z,100102.56
2023-04-11T21:41:49.532Z,100101.56
2023-04-11T21:44:16.948Z,100105.84
2023-04-11T21:46:44.756Z,100105.22
2023-04-11T21:49:12.060Z,100107.34
2023-04-11T21:51:39.335Z,100108.31
2023-04-11T21:54:07.190Z,100107.19
2023-04-11T21:56:35.806Z,100116.09
2023-04-11T21:59:03.059Z,100112.50
2023-04-11T22:01:30.880Z,100104.75
2023-04-11T22:03:59.010Z,100102.72
2023-04-11T22:06:30.154Z,100110.69
2023-04-11T22:09:01.363Z,100110.13
2023-04-11T22:11:29.562Z,100105.34
2023-04-11T22:13:58.644Z,100112.00
2023-04-11T22:16:30.917Z,100113.53
2023-04-11T22:18:59.506Z,100116.09
2023-04-11T22:21:27.182Z,100114.13
2023-04-11T22:23:56.380Z,100119.75
2023-04-11T22:26:26.497Z,100118.69
2023-04-11T22:28:55.028Z,100124.44
2023-04-11T22:31:30.059Z,100121.81
2023-04-11T22:33:57.953Z,100125.75
2023-04-11T22:36:25.445Z,100125.25
2023-04-11T22:38:52.866Z,100116.00
2023-04-11T22:41:20.139Z,100115.53
2023-04-11T22:43:47.394Z,100114.91
2023-04-11T22:46:14.742Z,100113.66
2023-04-11T22:48:43.648Z,100114.47
2023-04-11T22:51:11.287Z,100112.13
2023-04-11T22:53:41.976Z,100118.47
2023-04-11T22:56:09.479Z,100111.97
2023-04-11T22:58:37.752Z,100115.19
2023-04-11T23:01:05.719Z,100114.63
2023-04-11T23:03:33.062Z,100116.72
2023-04-11T23:06:01.647Z,100113.53
2023-04-11T23:08:29.918Z,100112.34
2023-04-11T23:10:57.296Z,100105.81
2023-04-11T23:13:24.588Z,100111.69
2023-04-11T23:15:52.315Z,100098.72
2023-04-11T23:18:19.690Z,100106.59
2023-04-11T23:20:48.743Z,100092.63
2023-04-11T23:23:17.554Z,100099.94
2023-04-11T23:25:45.388Z,100103.03
2023-04-11T23:28:12.847Z,100096.44
2023-04-11T23:30:40.344Z,100099.53
2023-04-11T23:33:09.084Z,100091.47
2023-04-11T23:35:36.989Z,100088.19
2023-04-11T23:38:04.321Z,100073.81
2023-04-11T23:40:33.465Z,100073.81
2023-04-11T23:43:00.865Z,100069.16
2023-04-11T23:45:28.184Z,100071.78
2023-04-11T23:47:56.072Z,100074.31
2023-04-11T23:50:23.370Z,100067.81
2023-04-11T23:52:50.634Z,100066.59
2023-04-11T23:55:17.955Z,100068.09
2023-04-11T23:57:46.540Z,100055.31
